Air Quality Table

TIMESTAMP NO2 SO2 O3 PM10 PM2.5 TEMP HUM AIRPRES WS WD NO
2022-12-08 09:00 26.33 µg/m3 0.22 µg/m3 37.11 µg/m3 65.8 µg/m3 12.48 µg/m3 14.82 °C 99.54 % 1,006.89 mbar 1.3 m/s 313.29 Deg 4.07 µg/m3
2022-12-08 01:00 46.42 µg/m3 0.32 µg/m3 10.84 µg/m3 201.94 µg/m3 27.26 µg/m3 16.31 °C 98.26 % 1,005.84 mbar 1.41 m/s 325.86 Deg 13.43 µg/m3
2022-12-07 17:00 27.41 µg/m3 0.22 µg/m3 43.02 µg/m3 89.79 µg/m3 16.68 µg/m3 19.68 °C 78.22 % 1,005.09 mbar 1.68 m/s 175.65 Deg 8.89 µg/m3
2022-12-07 09:00 25.45 µg/m3 0.22 µg/m3 40.09 µg/m3 36.25 µg/m3 7.49 µg/m3 17.84 °C 89.43 % 1,005.80 mbar 1.78 m/s 298.96 Deg 12.57 µg/m3
2022-12-07 01:00 6.18 µg/m3 0.01 µg/m3 70.84 µg/m3 51.92 µg/m3 9.92 µg/m3 18.17 °C 93.41 % 1,007.35 mbar 1.85 m/s 210.84 Deg 0.08 µg/m3
2022-12-06 17:00 8.42 µg/m3 0.06 µg/m3 73.98 µg/m3 43.88 µg/m3 10.59 µg/m3 18.64 °C 90.44 % 1,009.81 mbar 3.37 m/s 183.02 Deg 0.7 µg/m3
2022-12-06 09:00 52.59 µg/m3 0.16 µg/m3 28.47 µg/m3 49.24 µg/m3 10.89 µg/m3 16.83 °C 93.54 % 1,012.38 mbar 1.41 m/s 180.91 Deg 7.17 µg/m3
2022-12-06 01:00 7.41 µg/m3 0.06 µg/m3 69.83 µg/m3 56.08 µg/m3 10.89 µg/m3 16.56 °C 94.4 % 1,014.53 mbar 1.37 m/s 148.47 Deg 0.05 µg/m3
2022-12-05 17:00 16.68 µg/m3 0.22 µg/m3 65.02 µg/m3 62.58 µg/m3 13.94 µg/m3 19.13 °C 72.24 % 1,015.01 mbar 1.58 m/s 180.19 Deg 5.51 µg/m3
2022-12-05 09:00 34.67 µg/m3 0.31 µg/m3 49.45 µg/m3 51.43 µg/m3 12.01 µg/m3 17.08 °C 76.73 % 1,014.67 mbar 1.42 m/s 289.35 Deg 17.49 µg/m3
2022-12-05 01:00 32.66 µg/m3 0.17 µg/m3 48.95 µg/m3 69.15 µg/m3 15.72 µg/m3 17.26 °C 77.05 % 1,013.41 mbar 1.29 m/s 291.06 Deg 3.83 µg/m3
2022-12-04 17:00 10.35 µg/m3 0.1 µg/m3 71.79 µg/m3 69.14 µg/m3 15.28 µg/m3 19.68 °C 72.3 % 1,010.69 mbar 1.95 m/s 251.3 Deg 1.32 µg/m3
2022-12-04 09:00 22.22 µg/m3 0.14 µg/m3 54.08 µg/m3 50.14 µg/m3 9.77 µg/m3 17.4 °C 71.08 % 1,008.57 mbar 1.08 m/s 279.93 Deg 6.57 µg/m3
2022-12-04 01:00 8.1 µg/m3 -0 µg/m3 69.96 µg/m3 67.95 µg/m3 15.65 µg/m3 18.97 °C 84.6 % 1,006.57 mbar 4.29 m/s 210.82 Deg 0.03 µg/m3
2022-12-03 17:00 6.6 µg/m3 0 µg/m3 73.48 µg/m3 40.71 µg/m3 13.48 µg/m3 20.03 °C 85.47 % 1,004.88 mbar 8.12 m/s 166.24 Deg 0.55 µg/m3
2022-12-03 09:00 10.31 µg/m3 0.05 µg/m3 75.58 µg/m3 35.84 µg/m3 9.03 µg/m3 18.55 °C 80 % 1,007.18 mbar 6.92 m/s 151.32 Deg 0.34 µg/m3
2022-12-03 01:00 3.14 µg/m3 0.03 µg/m3 82.98 µg/m3 9.45 µg/m3 5.52 µg/m3 17.38 °C 80.95 % 1,009.50 mbar 4.81 m/s 147.88 Deg -0.04 µg/m3
2022-12-02 17:00 7.4 µg/m3 0.07 µg/m3 66.21 µg/m3 21.75 µg/m3 8.01 µg/m3 16.83 °C 84.46 % 1,010.85 mbar 3.82 m/s 164.05 Deg 1.81 µg/m3
2022-12-02 09:00 17.94 µg/m3 0.18 µg/m3 59.26 µg/m3 13.42 µg/m3 7.63 µg/m3 15.48 °C 77.45 % 1,011.68 mbar 1.43 m/s 177.1 Deg 4.27 µg/m3
2022-12-02 01:00 53.43 µg/m3 0.44 µg/m3 23.38 µg/m3 42.84 µg/m3 9.54 µg/m3 14.68 °C 79.1 % 1,010.99 mbar 1.48 m/s 296.89 Deg 16.77 µg/m3
2022-12-01 17:00 25.87 µg/m3 0.24 µg/m3 51.14 µg/m3 24.55 µg/m3 4.58 µg/m3 17.16 °C 66.7 % 1,008.56 mbar 2.11 m/s 322.19 Deg 7.7 µg/m3
2022-12-01 09:00 32.25 µg/m3 0.34 µg/m3 41.22 µg/m3 11.84 µg/m3 5.43 µg/m3 13.06 °C 87.61 % 1,006.23 mbar 1.68 m/s 304.69 Deg 17.71 µg/m3
2022-12-01 01:00 30.81 µg/m3 0.21 µg/m3 42.67 µg/m3 19.07 µg/m3 4.45 µg/m3 12.67 °C 87.91 % 1,004.14 mbar 1.74 m/s 303.43 Deg 4.3 µg/m3
2022-11-30 17:00 36.52 µg/m3 0.26 µg/m3 45.23 µg/m3 15.54 µg/m3 2.91 µg/m3 13.62 °C 84.43 % 1,001.99 mbar 2.11 m/s 304.13 Deg 7.83 µg/m3
2022-11-30 09:00 36.49 µg/m3 0.24 µg/m3 37.82 µg/m3 7.09 µg/m3 3.37 µg/m3 12.25 °C 98.64 % 1,001.43 mbar 1.51 m/s 307.31 Deg 11.35 µg/m3
2022-11-30 01:00 17.71 µg/m3 0.08 µg/m3 62.44 µg/m3 11.67 µg/m3 6.15 µg/m3 13.44 °C 94.23 % 1,001.01 mbar 1.72 m/s 228.12 Deg 1.19 µg/m3
2022-11-29 17:00 2.7 µg/m3 0.03 µg/m3 80.04 µg/m3 9.1 µg/m3 5.59 µg/m3 14.66 °C 90.88 % 1,000.87 mbar 5.38 m/s 132.74 Deg -0.04 µg/m3
2022-11-29 09:00 2.57 µg/m3 0.06 µg/m3 79.75 µg/m3 12.13 µg/m3 6.63 µg/m3 14.2 °C 84.71 % 1,003.61 mbar 4.93 m/s 140.39 Deg -0.09 µg/m3
2022-11-29 01:00 4.51 µg/m3 0.08 µg/m3 72.85 µg/m3 17 µg/m3 6.93 µg/m3 15.35 °C 70.81 % 1,007.46 mbar 2.34 m/s 157.24 Deg -0.02 µg/m3
2022-11-28 17:00 7.49 µg/m3 0.09 µg/m3 73.07 µg/m3 22.78 µg/m3 6.47 µg/m3 16.81 °C 66.98 % 1,009.34 mbar 2.5 m/s 145.01 Deg 1.2 µg/m3
2022-11-28 09:00 5.88 µg/m3 0.06 µg/m3 72.95 µg/m3 19.29 µg/m3 8.21 µg/m3 16.11 °C 75.32 % 1,010.17 mbar 4.41 m/s 75.61 Deg 0.56 µg/m3
2022-11-28 01:00 2.16 µg/m3 -0.01 µg/m3 76.64 µg/m3 20.53 µg/m3 7.5 µg/m3 16.07 °C 86.77 % 1,008.38 mbar 7.68 m/s 43.28 Deg 0.15 µg/m3
2022-11-27 17:00 2.99 µg/m3 -0.01 µg/m3 79.83 µg/m3 20.51 µg/m3 5.94 µg/m3 16.74 °C 94.8 % 1,002.91 mbar 7.9 m/s 48.15 Deg 0.37 µg/m3
2022-11-27 09:00 4.07 µg/m3 0.02 µg/m3 73.06 µg/m3 8.15 µg/m3 7.24 µg/m3 15.71 °C 95.88 % 999.84 mbar 5.69 m/s 165.35 Deg 0.12 µg/m3
2022-11-27 01:00 16.51 µg/m3 0.05 µg/m3 58.18 µg/m3 16.25 µg/m3 6.6 µg/m3 15.23 °C 93.21 % 1,002.03 mbar 2.87 m/s 228.18 Deg 1.31 µg/m3
2022-11-26 17:00 23.78 µg/m3 0.11 µg/m3 50.25 µg/m3 13.62 µg/m3 9.87 µg/m3 15.96 °C 97.67 % 1,005.16 mbar 2.11 m/s 268.97 Deg 3.53 µg/m3
2022-11-26 09:00 13.82 µg/m3 0.07 µg/m3 64.07 µg/m3 18.39 µg/m3 7.76 µg/m3 18.19 °C 87.87 % 1,009.62 mbar 3.6 m/s 188.91 Deg 0.12 µg/m3
2022-11-26 01:00 62.73 µg/m3 0.46 µg/m3 22.07 µg/m3 55.13 µg/m3 14.29 µg/m3 16.88 °C 79.22 % 1,013.62 mbar 0.9 m/s 234.56 Deg 19.99 µg/m3
2022-11-25 17:00 18.4 µg/m3 0.15 µg/m3 66.25 µg/m3 34.21 µg/m3 8.75 µg/m3 18.85 °C 66.73 % 1,014.11 mbar 2.1 m/s 113.79 Deg 3.99 µg/m3
2022-11-25 09:00 32.96 µg/m3 0.25 µg/m3 36.91 µg/m3 28.64 µg/m3 7.92 µg/m3 15.49 °C 89.61 % 1,013.37 mbar 1.6 m/s 304.27 Deg 12.51 µg/m3
2022-11-25 01:00 16.48 µg/m3 0.07 µg/m3 62.26 µg/m3 38.25 µg/m3 10.53 µg/m3 17.04 °C 86 % 1,011.13 mbar 2.19 m/s 317.8 Deg 1.1 µg/m3
2022-11-24 17:00 14.6 µg/m3 0.08 µg/m3 63.71 µg/m3 24.06 µg/m3 8.58 µg/m3 19.77 °C 75.17 % 1,008.54 mbar 3.73 m/s 323.93 Deg 4.19 µg/m3
2022-11-24 09:00 11.96 µg/m3 0.04 µg/m3 49.28 µg/m3 21.09 µg/m3 9.53 µg/m3 18.45 °C 95.13 % 1,005.98 mbar 3.17 m/s 321.37 Deg 2.16 µg/m3
2022-11-24 01:00 8.19 µg/m3 0.06 µg/m3 61.28 µg/m3 22.48 µg/m3 8.56 µg/m3 17.88 °C 90.33 % 1,004.89 mbar 3.35 m/s 301.23 Deg 0.79 µg/m3
2022-11-23 17:00 12.08 µg/m3 0.11 µg/m3 67.91 µg/m3 26.25 µg/m3 7.48 µg/m3 18.7 °C 69.38 % 1,003.64 mbar 4.79 m/s 298.22 Deg 2.51 µg/m3
2022-11-23 09:00 11.48 µg/m3 0.09 µg/m3 66.04 µg/m3 14.15 µg/m3 6.41 µg/m3 15.76 °C 72.68 % 1,004.05 mbar 3.03 m/s 304.63 Deg 1.69 µg/m3
2022-11-23 01:00 6.77 µg/m3 0.06 µg/m3 74.26 µg/m3 22.21 µg/m3 7.93 µg/m3 16.63 °C 64.36 % 1,004.84 mbar 3.9 m/s 298.37 Deg 0.64 µg/m3
2022-11-22 17:00 9.89 µg/m3 0.05 µg/m3 73.11 µg/m3 44.46 µg/m3 7.75 µg/m3 18.88 °C 66.84 % 1,002.53 mbar 6.25 m/s 280.95 Deg 1.6 µg/m3
2022-11-22 09:00 4.31 µg/m3 0.06 µg/m3 81.94 µg/m3 13.96 µg/m3 6.07 µg/m3 18.19 °C 62.35 % 1,005.29 mbar 5.15 m/s 238.24 Deg 0.64 µg/m3
2022-11-22 01:00 11.78 µg/m3 0.06 µg/m3 71.93 µg/m3 14.53 µg/m3 6.07 µg/m3 17.36 °C 70.69 % 1,010.05 mbar 2.75 m/s 271.15 Deg 0.58 µg/m3
2022-11-21 17:00 19.67 µg/m3 0.11 µg/m3 63.08 µg/m3 25.49 µg/m3 8.62 µg/m3 17.35 °C 78.73 % 1,010.70 mbar 3.12 m/s 318.38 Deg 3.59 µg/m3
2022-11-21 09:00 15.07 µg/m3 0.07 µg/m3 64.73 µg/m3 16.38 µg/m3 5.7 µg/m3 16 °C 74.08 % 1,009.14 mbar 2.76 m/s 321.38 Deg 1.74 µg/m3
2022-11-21 01:00 7.07 µg/m3 0.04 µg/m3 72.2 µg/m3 19.79 µg/m3 6.97 µg/m3 16.67 °C 72.4 % 1,006.85 mbar 3.2 m/s 313.26 Deg 0.59 µg/m3
2022-11-20 17:00 7.86 µg/m3 -0 µg/m3 73.03 µg/m3 54.68 µg/m3 12.73 µg/m3 16.12 °C 81.2 % 1,003.23 mbar 3.95 m/s 300.66 Deg 1.06 µg/m3
2022-11-20 09:00 14.2 µg/m3 -0.01 µg/m3 52.61 µg/m3 43.04 µg/m3 9.22 µg/m3 18.75 °C 82.36 % 1,002.07 mbar 2.39 m/s 277.66 Deg 0.35 µg/m3
2022-11-20 01:00 7.13 µg/m3 -0.05 µg/m3 65.47 µg/m3 85.27 µg/m3 17.96 µg/m3 21.6 °C 83.19 % 1,003.11 mbar 3.07 m/s 269.73 Deg 0.27 µg/m3
2022-11-19 17:00 6.46 µg/m3 -0.03 µg/m3 65.79 µg/m3 40.34 µg/m3 10.6 µg/m3 22.95 °C 87.82 % 1,002.79 mbar 4.74 m/s 212.7 Deg 1.27 µg/m3
2022-11-19 09:00 3.72 µg/m3 -0.05 µg/m3 62.6 µg/m3 51.98 µg/m3 12.06 µg/m3 20.87 °C 96.73 % 1,003.62 mbar 3.49 m/s 204.84 Deg 0.24 µg/m3
2022-11-19 01:00 12.42 µg/m3 -0.03 µg/m3 55.23 µg/m3 52.11 µg/m3 12.6 µg/m3 20.86 °C 94.05 % 1,004.73 mbar 2.1 m/s 255.66 Deg 0.35 µg/m3
2022-11-18 17:00 10.18 µg/m3 -0.02 µg/m3 67.76 µg/m3 25.62 µg/m3 8.8 µg/m3 23.21 °C 75.5 % 1,003.97 mbar 3.97 m/s 273.47 Deg 1.78 µg/m3
2022-11-18 09:00 9.87 µg/m3 0.02 µg/m3 62.08 µg/m3 11.19 µg/m3 5.93 µg/m3 20.55 °C 85.76 % 1,003.64 mbar 2.84 m/s 278.02 Deg 0.79 µg/m3
2022-11-18 01:00 23.01 µg/m3 0.05 µg/m3 49.52 µg/m3 25.63 µg/m3 7.68 µg/m3 19.42 °C 87.42 % 1,003.99 mbar 1.49 m/s 297.1 Deg 1.58 µg/m3
2022-11-17 17:00 15.83 µg/m3 0.04 µg/m3 65.82 µg/m3 38.3 µg/m3 10.9 µg/m3 21.72 °C 77.37 % 1,002.52 mbar 3.02 m/s 281.16 Deg 2.97 µg/m3
2022-11-17 09:00 29.64 µg/m3 0.08 µg/m3 40.11 µg/m3 33.95 µg/m3 9.59 µg/m3 19.05 °C 87.88 % 1,002.16 mbar 1.42 m/s 287.86 Deg 5.25 µg/m3
2022-11-17 01:00 19.79 µg/m3 0.01 µg/m3 52.43 µg/m3 47.37 µg/m3 11.91 µg/m3 19.92 °C 87.16 % 1,002.97 mbar 1.54 m/s 275.39 Deg 0.81 µg/m3
2022-11-16 17:00 11.68 µg/m3 0.01 µg/m3 70.88 µg/m3 41.41 µg/m3 10.6 µg/m3 22.88 °C 70.07 % 1,004.30 mbar 3.18 m/s 238.6 Deg 1.77 µg/m3
2022-11-16 09:00 6.74 µg/m3 0.03 µg/m3 69.04 µg/m3 15.86 µg/m3 6.92 µg/m3 20.4 °C 79.82 % 1,007.58 mbar 2.58 m/s 220.18 Deg 0.38 µg/m3
2022-11-16 01:00 17.35 µg/m3 0.07 µg/m3 58.56 µg/m3 22.92 µg/m3 6.84 µg/m3 20.02 °C 79 % 1,011.06 mbar 1.57 m/s 231.54 Deg 0.86 µg/m3
2022-11-15 17:00 21.47 µg/m3 0.18 µg/m3 57.76 µg/m3 33.87 µg/m3 11.67 µg/m3 22.13 °C 72.54 % 1,012.83 mbar 2.06 m/s 251.61 Deg 12.07 µg/m3
2022-11-15 09:00 37 µg/m3 0.21 µg/m3 45.24 µg/m3 16.44 µg/m3 6.97 µg/m3 19.25 °C 86.43 % 1,014.27 mbar 1.41 m/s 300.83 Deg 13.85 µg/m3
2022-11-15 01:00 15.93 µg/m3 0.05 µg/m3 55.99 µg/m3 18.93 µg/m3 7.58 µg/m3 19.41 °C 85.15 % 1,015.38 mbar 1.54 m/s 235.16 Deg 0.54 µg/m3
2022-11-14 17:00 13.67 µg/m3 0.02 µg/m3 61.53 µg/m3 24.64 µg/m3 9.37 µg/m3 19.4 °C 83.66 % 1,015.72 mbar 2.25 m/s 135.01 Deg 1.65 µg/m3
2022-11-14 09:00 15.22 µg/m3 0.04 µg/m3 57.77 µg/m3 16.19 µg/m3 6.92 µg/m3 19.73 °C 86.15 % 1,014.96 mbar 1.81 m/s 223.07 Deg 2.14 µg/m3
2022-11-14 01:00 30.31 µg/m3 0.07 µg/m3 49.12 µg/m3 27.64 µg/m3 3.86 µg/m3 19.63 °C 79.13 % 1,015.29 mbar 1.32 m/s 208.19 Deg 2.78 µg/m3
2022-11-13 17:00 8.39 µg/m3 0.01 µg/m3 76.19 µg/m3 12.82 µg/m3 3.57 µg/m3 20.89 °C 72.93 % 1,014.27 mbar 1.09 m/s 202.88 Deg 0.74 µg/m3
2022-11-13 09:00 7.35 µg/m3 0.02 µg/m3 67.3 µg/m3 9.33 µg/m3 3.87 µg/m3 17.75 °C 92.64 % 1,012.92 mbar 1.93 m/s 149.09 Deg 0.62 µg/m3
2022-11-13 01:00 12.26 µg/m3 0.02 µg/m3 63.08 µg/m3 20.43 µg/m3 12.06 µg/m3 16.62 °C 99.74 % 1,013.93 mbar 2.2 m/s 175.65 Deg 0.53 µg/m3
2022-11-12 17:00 15.64 µg/m3 0.05 µg/m3 64.6 µg/m3 24.44 µg/m3 10.42 µg/m3 18.88 °C 85.69 % 1,016.59 mbar 1.48 m/s 198.96 Deg 1.47 µg/m3
2022-11-12 09:00 18.52 µg/m3 0.05 µg/m3 62.65 µg/m3 17.97 µg/m3 7.92 µg/m3 19.18 °C 79.91 % 1,018.63 mbar 1.38 m/s 66.53 Deg 2.48 µg/m3
2022-11-12 01:00 10.44 µg/m3 0.02 µg/m3 74.3 µg/m3 18.68 µg/m3 7.05 µg/m3 19.75 °C 80.17 % 1,019.97 mbar 1.79 m/s 119.2 Deg 0.35 µg/m3
2022-11-11 17:00 9.57 µg/m3 0.04 µg/m3 81.07 µg/m3 15.34 µg/m3 6.51 µg/m3 21.35 °C 70.92 % 1,019.75 mbar 2.42 m/s 221.14 Deg 1.75 µg/m3
2022-11-11 09:00 16.26 µg/m3 0.11 µg/m3 62.34 µg/m3 14.56 µg/m3 6.6 µg/m3 19.05 °C 81.08 % 1,018.98 mbar 1.37 m/s 118.11 Deg 0.81 µg/m3
2022-11-11 01:00 26.18 µg/m3 0.11 µg/m3 50.73 µg/m3 18.64 µg/m3 5.92 µg/m3 19.44 °C 75.17 % 1,017.73 mbar 0.74 m/s 152.24 Deg 2.87 µg/m3
2022-11-10 17:00 3.33 µg/m3 0.05 µg/m3 78.76 µg/m3 18.12 µg/m3 7.8 µg/m3 21.14 °C 70.86 % 1,015.56 mbar 2.54 m/s 144.32 Deg 0.17 µg/m3
2022-11-10 09:00 34.89 µg/m3 0.33 µg/m3 35.62 µg/m3 21.77 µg/m3 7.91 µg/m3 19.13 °C 84.97 % 1,014.25 mbar 0.79 m/s 114.79 Deg 14.83 µg/m3
2022-11-10 01:00 22.89 µg/m3 0.09 µg/m3 59.94 µg/m3 19.16 µg/m3 7.53 µg/m3 19.41 °C 73.66 % 1,014.24 mbar 0.76 m/s 149.76 Deg 3.02 µg/m3
2022-11-09 17:00 4.54 µg/m3 0.05 µg/m3 84.47 µg/m3 15.8 µg/m3 6.92 µg/m3 20.79 °C 68.24 % 1,014.52 mbar 2.87 m/s 162.28 Deg 0.3 µg/m3
2022-11-09 09:00 28.81 µg/m3 0.24 µg/m3 53.8 µg/m3 21.74 µg/m3 6.65 µg/m3 18.89 °C 71.77 % 1,014.66 mbar 0.56 m/s 153.9 Deg 10.1 µg/m3
2022-11-09 01:00 43.42 µg/m3 0.2 µg/m3 40.43 µg/m3 24.59 µg/m3 6.39 µg/m3 18.99 °C 73.13 % 1,014.69 mbar 0.67 m/s 201.71 Deg 4.38 µg/m3

It is to be noted that the data is provisional and subject to quality assurance procedures. For validated data kindly refer your request to contact.air@era.org.mt